createdAt,value
2023-04-30T00:00:43.233Z,11.40
2023-04-30T00:03:11.348Z,9.30
2023-04-30T00:05:39.788Z,9.20
2023-04-30T00:08:09.182Z,9.20
2023-04-30T00:10:37.304Z,9.20
2023-04-30T00:13:05.494Z,9.20
2023-04-30T00:15:33.718Z,9.40
2023-04-30T00:18:01.957Z,9.20
2023-04-30T00:20:30.033Z,9.20
2023-04-30T00:22:58.116Z,9.10
2023-04-30T00:25:27.598Z,9.20
2023-04-30T00:27:55.909Z,9.20
2023-04-30T00:30:24.161Z,8.90
2023-04-30T00:32:52.233Z,9.10
2023-04-30T00:35:21.324Z,9.10
2023-04-30T00:37:49.485Z,9.00
2023-04-30T00:40:17.748Z,9.10
2023-04-30T00:42:48.705Z,9.10
2023-04-30T00:45:18.032Z,9.00
2023-04-30T00:47:46.204Z,11.50
2023-04-30T00:50:15.948Z,11.30
2023-04-30T00:52:44.253Z,11.70
2023-04-30T00:55:13.387Z,9.10
2023-04-30T00:57:41.760Z,9.10
2023-04-30T01:00:13.997Z,9.10
2023-04-30T01:02:42.127Z,9.10
2023-04-30T01:05:10.545Z,9.10
2023-04-30T01:07:44.734Z,9.10
2023-04-30T01:10:13.841Z,9.10
2023-04-30T01:12:47.842Z,9.10
2023-04-30T01:15:23.853Z,9.10
2023-04-30T01:17:57.812Z,9.10
2023-04-30T01:20:29.200Z,10.60
2023-04-30T01:23:12.024Z,9.80
2023-04-30T01:25:55.092Z,9.20
2023-04-30T01:28:25.578Z,9.10
2023-04-30T01:30:54.134Z,9.20
2023-04-30T01:33:22.259Z,10.40
2023-04-30T01:36:14.704Z,9.50
2023-04-30T01:39:01.028Z,9.10
2023-04-30T01:41:36.065Z,9.20
2023-04-30T01:44:25.713Z,9.10
2023-04-30T01:47:02.539Z,9.10
2023-04-30T01:49:39.910Z,9.30
2023-04-30T01:52:20.694Z,10.30
2023-04-30T01:54:54.267Z,9.70
2023-04-30T01:57:29.751Z,9.10
2023-04-30T01:59:59.651Z,9.00
2023-04-30T02:02:27.803Z,9.10
2023-04-30T02:04:56.113Z,9.00
2023-04-30T02:07:34.570Z,9.00
2023-04-30T02:10:03.376Z,9.00
2023-04-30T02:12:31.362Z,10.60
2023-04-30T02:15:00.832Z,9.80
2023-04-30T02:17:28.978Z,9.40
2023-04-30T02:19:57.072Z,9.00
2023-04-30T02:22:25.810Z,9.00
2023-04-30T02:24:55.763Z,9.30
2023-04-30T02:27:25.841Z,9.00
2023-04-30T02:29:54.299Z,9.00
2023-04-30T02:32:24.360Z,9.00
2023-04-30T02:34:52.647Z,9.00
2023-04-30T02:37:20.758Z,9.20
2023-04-30T02:39:49.029Z,9.00
2023-04-30T02:42:17.052Z,8.90
2023-04-30T02:44:45.078Z,9.20
2023-04-30T02:47:13.094Z,8.90
2023-04-30T02:49:43.639Z,8.80
2023-04-30T02:52:11.653Z,9.30
2023-04-30T02:54:39.665Z,8.90
2023-04-30T02:57:08.027Z,8.80
2023-04-30T02:59:36.035Z,9.60
2023-04-30T03:02:04.164Z,10.00
2023-04-30T03:04:32.193Z,8.90
2023-04-30T03:07:01.918Z,8.80
2023-04-30T03:09:31.568Z,9.40
2023-04-30T03:11:59.651Z,9.10
2023-04-30T03:14:27.644Z,8.90
2023-04-30T03:16:55.640Z,8.80
2023-04-30T03:19:25.330Z,8.90
2023-04-30T03:21:53.857Z,8.90
2023-04-30T03:24:23.275Z,8.80
2023-04-30T03:26:51.379Z,8.80
2023-04-30T03:29:19.564Z,8.90
2023-04-30T03:31:47.723Z,9.50
2023-04-30T03:34:16.209Z,9.20
2023-04-30T03:36:44.229Z,8.80
2023-04-30T03:39:12.378Z,8.90
2023-04-30T03:41:41.713Z,8.80
2023-04-30T03:44:15.690Z,9.10
2023-04-30T03:46:44.311Z,9.30
2023-04-30T03:49:12.704Z,8.80
2023-04-30T03:51:42.052Z,8.80
2023-04-30T03:54:10.294Z,8.90
2023-04-30T03:56:39.380Z,8.80
2023-04-30T03:59:09.342Z,8.80
2023-04-30T04:01:37.700Z,9.10
2023-04-30T04:04:06.452Z,8.80
2023-04-30T04:06:35.069Z,8.80
2023-04-30T04:09:03.810Z,8.80
2023-04-30T04:11:31.878Z,8.80
2023-04-30T04:13:59.949Z,9.60
2023-04-30T04:16:29.458Z,8.80
2023-04-30T04:18:58.007Z,10.80
2023-04-30T04:21:27.035Z,9.50
2023-04-30T04:23:55.062Z,8.80
2023-04-30T04:26:25.521Z,8.80
2023-04-30T04:28:53.574Z,9.60
2023-04-30T04:31:22.643Z,10.10
2023-04-30T04:33:58.256Z,10.10
2023-04-30T04:36:27.783Z,10.10
2023-04-30T04:38:57.698Z,10.30
2023-04-30T04:41:26.665Z,9.50
2023-04-30T04:43:54.745Z,8.90
2023-04-30T04:46:23.244Z,8.90
2023-04-30T04:48:53.181Z,9.00
2023-04-30T04:51:21.590Z,10.30
2023-04-30T04:53:49.588Z,9.10
2023-04-30T04:56:17.724Z,9.40
2023-04-30T04:58:46.474Z,9.20
2023-04-30T05:01:14.809Z,9.30
2023-04-30T05:03:43.061Z,9.60
2023-04-30T05:06:12.653Z,10.60
2023-04-30T05:08:40.819Z,9.50
2023-04-30T05:11:08.936Z,10.30
2023-04-30T05:13:37.106Z,10.00
2023-04-30T05:16:06.340Z,9.70
2023-04-30T05:18:34.424Z,9.80
2023-04-30T05:21:02.456Z,10.00
2023-04-30T05:23:32.641Z,10.10
2023-04-30T05:26:01.014Z,10.60
2023-04-30T05:28:29.081Z,10.70
2023-04-30T05:30:57.083Z,10.90
2023-04-30T05:33:25.120Z,10.30
2023-04-30T05:35:53.199Z,10.30
2023-04-30T05:38:21.267Z,10.40
2023-04-30T05:40:50.861Z,10.50
2023-04-30T05:43:18.889Z,10.50
2023-04-30T05:45:47.187Z,10.70
2023-04-30T05:48:15.237Z,10.60
2023-04-30T05:50:43.651Z,10.80
2023-04-30T05:53:11.815Z,10.90
2023-04-30T05:55:40.357Z,11.00
2023-04-30T05:58:10.898Z,12.10
2023-04-30T06:00:40.589Z,10.20
2023-04-30T06:03:10.275Z,11.30
2023-04-30T06:05:42.284Z,11.60
2023-04-30T06:08:11.498Z,10.40
2023-04-30T06:10:41.916Z,13.60
2023-04-30T06:13:11.890Z,11.90
2023-04-30T06:15:40.576Z,12.20
2023-04-30T06:18:09.504Z,12.70
2023-04-30T06:20:37.846Z,13.30
2023-04-30T06:23:06.623Z,13.80
2023-04-30T06:25:34.960Z,14.60
2023-04-30T06:28:03.588Z,14.70
2023-04-30T06:30:33.759Z,15.30
2023-04-30T06:33:02.547Z,15.60
2023-04-30T06:35:31.414Z,15.80
2023-04-30T06:38:00.343Z,15.60
2023-04-30T06:40:28.964Z,16.10
2023-04-30T06:42:57.411Z,16.60
2023-04-30T06:45:25.530Z,15.10
2023-04-30T06:47:55.066Z,16.60
2023-04-30T06:50:23.171Z,17.10
2023-04-30T06:52:51.365Z,17.00
2023-04-30T06:55:19.968Z,17.10
2023-04-30T06:57:48.273Z,17.30
2023-04-30T07:00:16.726Z,17.40
2023-04-30T07:02:45.409Z,17.60
2023-04-30T07:05:14.842Z,17.30
2023-04-30T07:07:42.833Z,17.50
2023-04-30T07:10:11.492Z,17.60
2023-04-30T07:12:39.545Z,17.40
2023-04-30T07:15:08.785Z,17.60
2023-04-30T07:17:37.311Z,17.40
2023-04-30T07:20:06.008Z,18.30
2023-04-30T07:22:35.828Z,18.30
2023-04-30T07:25:04.114Z,18.20
2023-04-30T07:27:32.094Z,18.10
2023-04-30T07:30:00.264Z,18.40
2023-04-30T07:32:28.483Z,18.40
2023-04-30T07:34:56.486Z,18.60
2023-04-30T07:37:24.559Z,18.90
2023-04-30T07:39:54.131Z,18.10
2023-04-30T07:42:22.418Z,18.30
2023-04-30T07:44:50.488Z,18.90
2023-04-30T07:47:19.921Z,19.30
2023-04-30T07:49:48.291Z,19.00
2023-04-30T07:52:16.314Z,19.50
2023-04-30T07:54:44.388Z,19.70
2023-04-30T07:57:14.112Z,19.90
2023-04-30T07:59:42.117Z,19.60
2023-04-30T08:02:10.809Z,19.40
2023-04-30T08:04:38.854Z,19.10
2023-04-30T08:07:07.637Z,18.40
2023-04-30T08:09:35.765Z,18.50
2023-04-30T08:12:05.060Z,19.10
2023-04-30T08:14:35.101Z,19.90
2023-04-30T08:17:03.394Z,19.50
2023-04-30T08:19:31.482Z,18.70
2023-04-30T08:22:00.181Z,18.60
2023-04-30T08:24:28.309Z,17.90
2023-04-30T08:26:56.306Z,17.70
2023-04-30T08:29:24.420Z,17.60
2023-04-30T08:31:53.882Z,17.70
2023-04-30T08:34:21.973Z,17.30
2023-04-30T08:36:49.955Z,16.70
2023-04-30T08:39:17.920Z,16.50
2023-04-30T08:41:48.895Z,16.40
2023-04-30T08:44:16.934Z,16.50
2023-04-30T08:46:46.367Z,16.60
2023-04-30T08:49:15.788Z,16.30
2023-04-30T08:51:44.295Z,16.40
2023-04-30T08:54:14.130Z,16.10
2023-04-30T08:56:42.271Z,15.80
2023-04-30T08:59:10.596Z,15.60
2023-04-30T09:01:38.756Z,15.80
2023-04-30T09:04:07.658Z,15.90
2023-04-30T09:06:37.392Z,16.30
2023-04-30T09:09:11.805Z,16.20
2023-04-30T09:11:40.095Z,16.60
2023-04-30T09:14:08.321Z,17.00
2023-04-30T09:16:47.791Z,16.90
2023-04-30T09:19:25.943Z,17.10
2023-04-30T09:21:56.349Z,16.90
2023-04-30T09:24:24.987Z,17.00
2023-04-30T09:26:54.990Z,17.30
2023-04-30T09:29:23.089Z,17.70
2023-04-30T09:31:51.272Z,17.20
2023-04-30T09:34:19.363Z,16.80
2023-04-30T09:36:55.966Z,16.80
2023-04-30T09:39:24.401Z,17.00
2023-04-30T09:41:52.987Z,17.10
2023-04-30T09:44:30.944Z,17.10
2023-04-30T09:46:59.608Z,17.20
2023-04-30T09:49:27.885Z,16.90
2023-04-30T09:51:59.184Z,17.10
2023-04-30T09:54:29.268Z,16.90
2023-04-30T09:56:58.364Z,16.80
2023-04-30T09:59:32.080Z,16.80
2023-04-30T10:02:01.861Z,17.00
2023-04-30T10:04:32.235Z,17.00
2023-04-30T10:07:09.216Z,17.00
2023-04-30T10:09:42.492Z,17.50
2023-04-30T10:12:25.440Z,17.60
2023-04-30T10:14:59.925Z,17.30
2023-04-30T10:17:31.943Z,17.30
2023-04-30T10:20:07.873Z,17.20
2023-04-30T10:22:38.184Z,17.20
2023-04-30T10:25:11.348Z,17.00
2023-04-30T10:27:40.125Z,17.10
2023-04-30T10:30:11.254Z,17.20
2023-04-30T10:32:45.119Z,17.60
2023-04-30T10:35:20.162Z,17.60
2023-04-30T10:38:41.058Z,18.00
2023-04-30T10:41:10.621Z,18.50
2023-04-30T10:43:39.210Z,18.40
2023-04-30T10:46:07.309Z,18.70
2023-04-30T10:48:36.134Z,19.10
2023-04-30T10:51:04.236Z,20.20
2023-04-30T10:53:33.748Z,19.70
2023-04-30T10:56:06.677Z,20.00
2023-04-30T10:58:38.391Z,22.40
2023-04-30T11:01:16.769Z,19.70
2023-04-30T11:04:08.317Z,19.00
2023-04-30T11:06:51.075Z,17.50
2023-04-30T11:12:04.122Z,17.40
2023-04-30T11:14:35.359Z,18.50
2023-04-30T11:17:03.448Z,18.60
2023-04-30T11:19:31.556Z,18.60
2023-04-30T11:22:19.250Z,18.20
2023-04-30T11:24:55.009Z,18.70
2023-04-30T11:27:24.738Z,19.60
2023-04-30T11:29:55.080Z,20.60
2023-04-30T11:32:25.490Z,22.20
2023-04-30T11:34:53.966Z,22.60
2023-04-30T11:37:23.401Z,23.10
2023-04-30T11:39:52.023Z,22.40
2023-04-30T11:42:21.223Z,23.70
2023-04-30T11:44:49.240Z,24.40
2023-04-30T11:47:18.540Z,22.50
2023-04-30T11:49:46.616Z,21.90
2023-04-30T11:52:14.727Z,21.50
2023-04-30T11:54:42.808Z,20.80
2023-04-30T11:57:12.342Z,20.50
2023-04-30T11:59:43.812Z,20.20
2023-04-30T12:02:16.467Z,20.70
2023-04-30T12:04:48.505Z,19.40
2023-04-30T12:07:16.536Z,20.70
2023-04-30T12:09:54.975Z,19.80
2023-04-30T12:12:30.520Z,19.40
2023-04-30T12:14:59.452Z,19.40
2023-04-30T12:17:34.456Z,20.20
2023-04-30T12:20:05.146Z,21.40
2023-04-30T12:22:33.382Z,21.50
2023-04-30T12:25:02.352Z,22.00
2023-04-30T12:27:32.047Z,21.30
2023-04-30T12:30:04.258Z,20.80
2023-04-30T12:35:17.276Z,20.00
2023-04-30T12:37:45.948Z,20.30
2023-04-30T12:40:14.626Z,20.40
2023-04-30T12:42:43.975Z,19.70
2023-04-30T12:45:12.754Z,20.30
2023-04-30T12:47:42.065Z,20.60
2023-04-30T12:50:12.515Z,20.80
2023-04-30T12:52:43.169Z,20.30
2023-04-30T12:55:19.520Z,20.20
2023-04-30T12:58:07.654Z,20.00
2023-04-30T13:00:49.564Z,20.60
2023-04-30T13:03:20.044Z,21.10
2023-04-30T13:05:49.723Z,20.00
2023-04-30T13:08:20.649Z,20.40
2023-04-30T13:10:49.745Z,20.40
2023-04-30T13:13:20.203Z,19.90
2023-04-30T13:15:48.350Z,21.20
2023-04-30T13:18:16.640Z,18.90
2023-04-30T13:20:45.021Z,19.00
2023-04-30T13:23:13.132Z,19.20
2023-04-30T13:25:42.762Z,21.30
2023-04-30T13:28:10.891Z,19.10
2023-04-30T13:30:39.134Z,20.80
2023-04-30T13:33:07.089Z,21.60
2023-04-30T13:35:34.992Z,20.00
2023-04-30T13:38:03.451Z,20.40
2023-04-30T13:40:31.400Z,20.20
2023-04-30T13:43:00.646Z,19.50
2023-04-30T13:45:28.552Z,19.70
2023-04-30T13:47:56.810Z,19.60
2023-04-30T13:50:24.954Z,20.90
2023-04-30T13:52:56.117Z,19.60
2023-04-30T13:55:24.486Z,19.00
2023-04-30T13:57:52.461Z,19.80
2023-04-30T14:00:22.128Z,20.20
2023-04-30T14:02:50.233Z,20.20
2023-04-30T14:05:18.416Z,20.30
2023-04-30T14:07:46.490Z,20.20
2023-04-30T14:10:14.470Z,20.40
2023-04-30T14:12:42.535Z,20.70
2023-04-30T14:15:11.478Z,20.40
2023-04-30T14:17:40.882Z,20.00
2023-04-30T14:20:11.293Z,19.90
2023-04-30T14:22:39.318Z,19.70
2023-04-30T14:25:09.248Z,19.80
2023-04-30T14:27:37.426Z,20.00
2023-04-30T14:30:06.274Z,20.10
2023-04-30T14:32:34.329Z,19.60
2023-04-30T14:35:09.653Z,19.50
2023-04-30T14:37:37.672Z,19.30
2023-04-30T14:40:07.940Z,19.00
2023-04-30T14:42:36.009Z,19.00
2023-04-30T14:45:04.048Z,18.50
2023-04-30T14:47:32.152Z,18.30
2023-04-30T14:50:02.194Z,18.10
2023-04-30T14:52:31.724Z,18.00
2023-04-30T14:54:59.895Z,18.30
2023-04-30T14:57:28.839Z,18.50
2023-04-30T14:59:57.962Z,18.50
2023-04-30T15:02:26.125Z,18.20
2023-04-30T15:04:54.278Z,18.40
2023-04-30T15:07:22.516Z,18.30
2023-04-30T15:09:52.866Z,18.00
2023-04-30T15:12:22.399Z,17.60
2023-04-30T15:14:50.482Z,17.90
2023-04-30T15:17:18.562Z,18.10
2023-04-30T15:19:46.516Z,18.40
2023-04-30T15:22:14.592Z,18.50
2023-04-30T15:24:42.609Z,18.70
2023-04-30T15:27:12.601Z,18.60
2023-04-30T15:29:41.348Z,18.60
2023-04-30T15:32:09.310Z,18.40
2023-04-30T15:34:37.284Z,18.20
2023-04-30T15:37:05.961Z,17.70
2023-04-30T15:39:35.243Z,17.70
2023-04-30T15:44:33.508Z,17.60
2023-04-30T15:47:01.640Z,17.40
2023-04-30T15:49:29.735Z,17.40
2023-04-30T15:51:57.857Z,17.30
2023-04-30T15:54:25.866Z,17.40
2023-04-30T15:56:53.818Z,17.10
2023-04-30T15:59:21.871Z,17.20
2023-04-30T16:01:51.311Z,17.20
2023-04-30T16:04:19.308Z,17.30
2023-04-30T16:06:47.715Z,17.30
2023-04-30T16:09:19.615Z,17.30
2023-04-30T16:11:48.503Z,17.10
2023-04-30T16:14:16.590Z,17.00
2023-04-30T16:16:44.739Z,17.00
2023-04-30T16:19:14.171Z,17.00
2023-04-30T16:21:42.276Z,16.80
2023-04-30T16:24:10.777Z,16.70
2023-04-30T16:26:38.897Z,16.60
2023-04-30T16:29:06.955Z,16.70
2023-04-30T16:31:35.035Z,16.60
2023-04-30T16:34:03.045Z,16.50
2023-04-30T16:36:32.797Z,16.50
2023-04-30T16:39:01.304Z,16.40
2023-04-30T16:41:29.380Z,16.40
2023-04-30T16:43:57.438Z,16.30
2023-04-30T16:46:25.514Z,16.20
2023-04-30T16:48:53.777Z,16.20
2023-04-30T16:51:24.485Z,16.20
2023-04-30T16:53:53.986Z,16.10
2023-04-30T16:56:22.631Z,16.10
2023-04-30T16:58:50.880Z,16.00
2023-04-30T17:01:19.212Z,16.10
2023-04-30T17:03:47.466Z,16.00
2023-04-30T17:06:15.588Z,16.00
2023-04-30T17:08:43.589Z,15.90
2023-04-30T17:11:13.311Z,15.90
2023-04-30T17:13:41.381Z,15.80
2023-04-30T17:16:09.433Z,15.70
2023-04-30T17:18:37.433Z,15.70
2023-04-30T17:21:17.410Z,15.60
2023-04-30T17:23:56.772Z,15.60
2023-04-30T17:26:26.762Z,15.40
2023-04-30T17:28:54.671Z,15.40
2023-04-30T17:31:24.035Z,15.40
2023-04-30T17:33:52.347Z,15.20
2023-04-30T17:36:20.319Z,15.10
2023-04-30T17:38:48.396Z,15.00
2023-04-30T17:41:18.478Z,14.90
2023-04-30T17:43:47.943Z,14.80
2023-04-30T17:46:16.059Z,14.60
2023-04-30T17:48:44.498Z,14.40
2023-04-30T17:51:12.573Z,14.40
2023-04-30T17:53:40.598Z,14.30
2023-04-30T17:56:09.991Z,14.20
2023-04-30T17:58:39.802Z,14.20
2023-04-30T18:01:09.498Z,14.10
2023-04-30T18:03:37.616Z,14.10
2023-04-30T18:06:05.891Z,13.80
2023-04-30T18:08:34.012Z,13.70
2023-04-30T18:11:03.292Z,13.70
2023-04-30T18:13:31.582Z,14.10
2023-04-30T18:15:59.706Z,13.30
2023-04-30T18:18:29.203Z,13.20
2023-04-30T18:23:26.729Z,12.90
2023-04-30T18:25:54.790Z,12.80
2023-04-30T18:28:24.689Z,12.80
2023-04-30T18:30:52.696Z,13.20
2023-04-30T18:33:20.950Z,14.10
2023-04-30T18:35:51.649Z,13.00
2023-04-30T18:38:20.670Z,12.20
2023-04-30T18:40:48.691Z,13.10
2023-04-30T18:43:16.906Z,12.00
2023-04-30T18:45:45.030Z,11.90
2023-04-30T18:48:15.115Z,11.70
2023-04-30T18:50:43.427Z,11.60
2023-04-30T18:53:13.490Z,11.50
2023-04-30T18:55:41.460Z,11.80
2023-04-30T18:58:09.458Z,11.90
2023-04-30T19:00:37.442Z,11.40
2023-04-30T19:03:05.558Z,11.00
2023-04-30T19:05:35.907Z,10.90
2023-04-30T19:08:03.888Z,10.80
2023-04-30T19:10:36.068Z,10.60
2023-04-30T19:13:04.052Z,12.00
2023-04-30T19:15:32.066Z,10.50
2023-04-30T19:18:00.184Z,11.50
2023-04-30T19:20:28.149Z,10.40
2023-04-30T19:22:56.152Z,11.20
2023-04-30T19:25:24.431Z,10.40
2023-04-30T19:27:53.774Z,11.10
2023-04-30T19:30:21.858Z,10.20
2023-04-30T19:32:49.984Z,10.00
2023-04-30T19:35:17.990Z,10.00
2023-04-30T19:37:45.952Z,9.90
2023-04-30T19:40:15.712Z,9.90
2023-04-30T19:42:43.649Z,9.80
2023-04-30T19:45:13.435Z,9.80
2023-04-30T19:47:41.447Z,9.80
2023-04-30T19:50:10.553Z,10.20
2023-04-30T19:52:38.575Z,9.60
2023-04-30T19:55:07.040Z,10.80
2023-04-30T19:57:36.018Z,9.50
2023-04-30T20:00:06.171Z,9.40
2023-04-30T20:02:35.766Z,9.40
2023-04-30T20:05:06.961Z,12.10
2023-04-30T20:07:35.720Z,11.20
2023-04-30T20:10:03.690Z,11.00
2023-04-30T20:12:31.696Z,10.10
2023-04-30T20:14:59.748Z,9.20
2023-04-30T20:17:27.855Z,9.80
2023-04-30T20:19:57.442Z,9.10
2023-04-30T20:22:25.697Z,9.10
2023-04-30T20:24:53.990Z,9.30
2023-04-30T20:27:22.066Z,9.00
2023-04-30T20:29:50.006Z,9.70
2023-04-30T20:32:18.258Z,10.80
2023-04-30T20:34:46.283Z,8.90
2023-04-30T20:37:15.643Z,8.90
2023-04-30T20:39:43.624Z,8.80
2023-04-30T20:42:11.812Z,8.70
2023-04-30T20:44:39.747Z,8.80
2023-04-30T20:47:08.970Z,8.70
2023-04-30T20:49:36.943Z,8.60
2023-04-30T20:52:05.046Z,8.60
2023-04-30T20:54:34.360Z,8.50
2023-04-30T20:57:03.073Z,8.60
2023-04-30T20:59:31.069Z,8.50
2023-04-30T21:01:59.075Z,8.40
2023-04-30T21:04:27.005Z,8.40
2023-04-30T21:06:55.416Z,8.30
2023-04-30T21:09:23.462Z,8.30
2023-04-30T21:11:53.185Z,8.20
2023-04-30T21:14:21.214Z,8.10
2023-04-30T21:16:49.301Z,8.90
2023-04-30T21:19:17.241Z,8.10
2023-04-30T21:21:45.631Z,8.10
2023-04-30T21:24:13.659Z,8.00
2023-04-30T21:26:41.708Z,8.00
2023-04-30T21:29:10.982Z,8.10
2023-04-30T21:31:38.931Z,9.50
2023-04-30T21:34:06.906Z,8.00
2023-04-30T21:36:35.355Z,8.00
2023-04-30T21:39:04.079Z,8.00
2023-04-30T21:41:32.181Z,9.20
2023-04-30T21:44:00.213Z,8.00
2023-04-30T21:46:29.781Z,8.10
2023-04-30T21:48:57.733Z,8.10
2023-04-30T21:51:25.913Z,9.60
2023-04-30T21:53:53.829Z,8.00
2023-04-30T21:56:22.044Z,8.10
2023-04-30T21:58:50.099Z,9.40
2023-04-30T22:01:18.222Z,10.60
2023-04-30T22:03:47.749Z,9.20
2023-04-30T22:06:15.818Z,8.50
2023-04-30T22:08:44.208Z,7.90
2023-04-30T22:11:12.475Z,7.90
2023-04-30T22:13:40.435Z,7.80
2023-04-30T22:16:08.896Z,7.70
2023-04-30T22:18:36.872Z,7.70
2023-04-30T22:21:06.756Z,7.60
2023-04-30T22:23:34.743Z,7.50
2023-04-30T22:26:04.554Z,8.10
2023-04-30T22:28:32.619Z,7.60
2023-04-30T22:31:01.358Z,7.60
2023-04-30T22:33:29.435Z,7.60
2023-04-30T22:35:57.583Z,7.60
2023-04-30T22:38:27.027Z,7.60
2023-04-30T22:40:54.994Z,7.50
2023-04-30T22:43:23.116Z,7.40
2023-04-30T22:45:51.300Z,7.40
2023-04-30T22:48:19.489Z,7.30
2023-04-30T22:50:47.603Z,7.30
2023-04-30T22:53:15.586Z,8.40
2023-04-30T22:55:45.389Z,7.20
2023-04-30T22:58:13.356Z,7.20
2023-04-30T23:00:41.408Z,7.10
2023-04-30T23:03:09.380Z,7.10
2023-04-30T23:05:37.359Z,7.10
2023-04-30T23:08:05.762Z,7.00
2023-04-30T23:10:33.702Z,7.00
2023-04-30T23:13:03.053Z,6.90
2023-04-30T23:15:31.038Z,6.90
2023-04-30T23:18:00.318Z,6.90
2023-04-30T23:20:28.486Z,7.00
2023-04-30T23:22:56.644Z,6.90
2023-04-30T23:25:24.658Z,6.90
2023-04-30T23:27:52.593Z,7.40
2023-04-30T23:30:22.034Z,6.80
2023-04-30T23:32:52.202Z,6.80
2023-04-30T23:35:20.179Z,6.80
2023-04-30T23:37:48.273Z,6.80
2023-04-30T23:40:16.586Z,6.90
2023-04-30T23:42:44.618Z,8.70
2023-04-30T23:45:12.763Z,6.80
2023-04-30T23:47:42.115Z,8.80
2023-04-30T23:50:11.473Z,6.80
2023-04-30T23:52:39.388Z,6.80
2023-04-30T23:55:08.603Z,8.20
2023-04-30T23:57:36.855Z,6.80
